createdAt,value
2023-03-01T00:04:33.892Z,18.56
2023-03-01T00:19:23.260Z,16.26
2023-03-01T00:34:13.493Z,18.18
2023-03-01T00:49:02.772Z,21.74
2023-03-01T01:18:55.219Z,17.09
2023-03-01T01:33:46.011Z,14.68
2023-03-01T01:48:43.625Z,17.91
2023-03-01T02:03:39.177Z,22.31
2023-03-01T02:18:30.523Z,19.88
2023-03-01T02:33:20.657Z,16.33
2023-03-01T02:48:10.904Z,19.50
2023-03-01T03:03:00.748Z,15.92
2023-03-01T03:17:51.359Z,19.54
2023-03-01T03:32:41.704Z,20.00
2023-03-01T03:47:31.168Z,21.20
2023-03-01T04:02:21.394Z,19.39
2023-03-01T04:17:10.124Z,17.28
2023-03-01T04:32:00.461Z,20.88
2023-03-01T04:46:49.871Z,19.88
2023-03-01T05:01:38.968Z,21.82
2023-03-01T05:16:27.537Z,21.38
2023-03-01T05:31:17.333Z,23.30
2023-03-01T05:46:07.688Z,23.51
2023-03-01T06:00:57.466Z,23.71
2023-03-01T06:15:47.048Z,25.36
2023-03-01T06:30:36.984Z,25.23
2023-03-01T06:45:26.301Z,22.10
2023-03-01T07:00:21.911Z,22.97
2023-03-01T07:15:08.070Z,27.09
2023-03-01T07:29:59.068Z,25.22
2023-03-01T07:44:50.432Z,26.58
2023-03-01T07:59:41.150Z,24.94
2023-03-01T08:14:31.224Z,25.13
2023-03-01T08:29:23.295Z,26.86
2023-03-01T08:44:15.334Z,24.78
2023-03-01T08:59:06.711Z,24.56
2023-03-01T09:13:56.658Z,27.28
2023-03-01T09:43:50.382Z,25.38
2023-03-01T09:58:54.487Z,21.57
2023-03-01T10:13:55.423Z,25.48
2023-03-01T10:29:05.362Z,20.34
2023-03-01T10:44:01.370Z,24.24
2023-03-01T10:59:03.992Z,21.02
2023-03-01T11:14:19.442Z,21.42
2023-03-01T11:29:00.684Z,22.62
2023-03-01T11:44:02.826Z,20.37
2023-03-01T11:59:04.095Z,20.59
2023-03-01T12:14:35.890Z,18.51
2023-03-01T12:29:38.633Z,23.01
2023-03-01T12:44:38.708Z,20.69
2023-03-01T12:59:35.950Z,20.72
2023-03-01T13:14:33.124Z,19.21
2023-03-01T13:29:27.574Z,21.57
2023-03-01T13:44:39.511Z,19.49
2023-03-01T13:59:35.360Z,19.02
2023-03-01T14:14:41.709Z,18.54
2023-03-01T14:29:36.583Z,16.29
2023-03-01T14:44:26.011Z,21.61
2023-03-01T14:59:15.541Z,18.76
2023-03-01T15:14:06.792Z,19.22
2023-03-01T15:28:58.849Z,18.96
2023-03-01T15:58:38.379Z,18.74
2023-03-01T16:13:29.464Z,16.03
2023-03-01T16:28:18.463Z,16.29
2023-03-01T16:43:08.084Z,16.29
2023-03-01T16:57:56.949Z,18.11
2023-03-01T17:12:51.713Z,18.29
2023-03-01T17:27:39.404Z,17.73
2023-03-01T17:42:31.501Z,15.89
2023-03-01T17:57:20.996Z,16.52
2023-03-01T18:12:15.649Z,18.39
2023-03-01T18:27:07.021Z,17.28
2023-03-01T18:41:57.338Z,18.17
2023-03-01T18:56:47.501Z,17.70
2023-03-01T19:11:37.853Z,16.48
2023-03-01T19:26:27.662Z,18.28
2023-03-01T19:41:17.560Z,15.28
2023-03-01T19:56:07.747Z,15.43
2023-03-01T20:11:01.741Z,15.88
2023-03-01T20:25:54.470Z,15.18
2023-03-01T20:55:43.284Z,15.72
2023-03-01T21:10:33.847Z,18.61
2023-03-01T21:25:21.363Z,17.43
2023-03-01T21:40:11.833Z,18.11
2023-03-01T21:55:02.234Z,25.19
2023-03-01T22:09:52.176Z,20.21
2023-03-01T22:24:41.771Z,19.43
2023-03-01T22:39:37.271Z,24.74
2023-03-01T22:54:22.532Z,22.07
2023-03-01T23:24:10.151Z,25.22
2023-03-01T23:39:00.780Z,29.10
2023-03-01T23:53:54.688Z,27.51
